Latest Coastal Weather Observations for Dunalley

IDT60701

Issued at 2:22 pm EST Wednesday 23 August 2017 (issued every 10 minutes, with the page automatically refreshed every 10 minutes)

About coastal observations | Map of coastal stations | Coastal observations for TAS | Marine services | Other Formats
Station Details ID: 094254 Name: DUNALLEY (STROUD POINT) Lat: -42.90 Lon: 147.79 Height: 12.43 m
Data from the previous 72 hours. | See also: Recent months at Dunalley
Date/Time
EST
Temp
°C
Wind Pressure Rain since
9am
mm
Weather Cloud Vis
km
Sea
Height
m
Swell
Dir  Spd
kts
Gust
kts
hPa Trend Height
m
Period
s
Dir
23/02:00pm 8.8 SW 5 6 1011.3 - 7.0 - - - - - - -
23/01:30pm 9.0 SW 5 7 1011.3 - 6.8 - - - - - - -
23/01:00pm 8.9 SW 5 5 1011.6 - 6.8 - - - - - - -
23/12:30pm 8.7 SW 6 7 1011.9 - 6.6 - - - - - - -
23/12:00pm 8.6 SW 7 8 1012.6 - 5.8 Rain - - - - - -
23/11:30am 8.6 SSW 8 9 1012.7 - 4.6 - - - - - - -
23/11:00am 8.5 SSW 7 8 1012.9 - 3.8 - - - - - - -
23/10:30am 8.5 SSW 5 6 1013.1 - 2.2 - - - - - - -
23/10:00am 8.6 CALM 0 1 1013.0 - 1.0 - - - - - - -
23/09:30am 8.7 SSW 1 1 1013.0 - 0.2 - - - - - - -
23/09:00am 8.8 SSW 2 2 1013.0 - 2.4 - - - - - - -
23/08:30am 8.4 SSW 2 2 1013.3 - 2.4 - - - - - - -
23/08:00am 8.1 SSW 1 2 1013.5 - 2.4 - - - - - - -
23/07:30am 7.8 SSW 1 3 1013.4 - 2.4 - - - - - - -
23/07:00am 8.0 CALM 0 0 1013.3 - 2.4 - - - - - - -
23/06:30am 8.0 CALM 0 0 1013.1 - 2.4 - - - - - - -
23/06:00am 8.1 CALM 0 0 1013.1 - 2.2 - - - - - - -
23/05:30am 8.0 CALM 0 1 1012.9 - 2.2 - - - - - - -
23/05:00am 8.0 SSW 3 3 1013.0 - 2.2 - - - - - - -
23/04:30am 8.2 SSW 1 2 1012.7 - 2.0 - - - - - - -
23/04:00am 8.4 SSW 3 4 1012.6 - 1.6 - - - - - - -
23/03:30am 8.4 SSW 7 9 1012.4 - 1.4 - - - - - - -
23/03:00am 8.8 S 4 6 1012.4 - 1.0 Rain - - - - - -
23/02:30am 8.9 S 5 6 1012.3 - 0.4 - - - - - - -
23/02:00am 9.0 S 3 5 1011.8 - 0.0 - - - - - - -
23/01:30am 9.2 S 7 9 1011.7 - 0.0 - - - - - - -
23/01:00am 9.5 SSW 11 14 1011.4 - 0.0 - - - - - - -
23/12:30am 10.4 SW 12 19 1010.8 - 0.0 - - - - - - -
23/12:00am 11.3 NNW 6 9 1010.3 - 0.0 - - - - - - -
 
Date/Time
EST
Temp
°C
Wind Pressure Rain since
9am
mm
Weather Cloud Vis
km
Sea
Height
m
Swell
Dir  Spd
kts
Gust
kts
hPa Trend Height
m
Period
s
Dir
22/11:30pm 10.9 NNW 3 5 1010.3 - 0.0 - - - - - - -
22/11:00pm 11.6 NNW 4 7 1010.4 - 0.0 - - - - - - -
22/10:30pm 11.6 NNW 6 10 1010.6 - 0.0 - - - - - - -
22/10:00pm 11.8 NW 9 13 1010.6 - 0.0 - - - - - - -
22/09:30pm 11.8 NW 9 15 1010.7 - 0.0 - - - - - - -
22/09:00pm 9.8 NNW 5 7 1010.7 - 0.0 - - - - - - -
22/08:30pm 10.3 NNW 3 6 1010.7 - 0.0 - - - - - - -
22/08:00pm 11.0 NNW 3 4 1010.6 - 0.0 - - - - - - -
22/07:30pm 10.7 NNW 4 6 1010.4 - 0.0 - - - - - - -
22/07:00pm 12.5 NW 3 5 1010.5 - 0.0 - - - - - - -
22/06:30pm 13.1 NW 10 17 1010.3 - 0.0 - - - - - - -
22/06:00pm 13.7 NW 11 16 1010.2 - 0.0 - - - - - - -
22/05:30pm 13.9 NW 7 11 1010.0 - 0.0 - - - - - - -
22/05:00pm 14.4 WNW 10 15 1009.9 - 0.0 - - - - - - -
22/04:30pm 14.9 NW 9 13 1010.0 - 0.0 - - - - - - -
22/04:00pm 15.3 WNW 16 21 1010.0 - 0.0 - - - - - - -
22/03:30pm 15.5 WNW 10 16 1010.0 - 0.0 - - - - - - -
22/03:00pm 14.2 SW 4 6 1010.3 - 0.0 - - - - - - -
22/02:30pm 15.2 WSW 11 19 1010.4 - 0.0 - - - - - - -
22/02:00pm 13.6 W 10 13 1010.6 - 0.0 - - - - - - -
22/01:30pm 13.7 W 9 17 1010.7 - 0.0 - - - - - - -
22/01:00pm 14.9 W 13 18 1010.9 - 0.0 - - - - - - -
22/12:30pm 14.4 WNW 7 11 1011.3 - 0.0 - - - - - - -
22/12:00pm 14.2 NW 7 11 1011.6 - 0.0 - - - - - - -
22/11:30am 13.7 NW 7 14 1011.9 - 0.0 - - - - - - -
22/11:00am 13.2 WNW 11 17 1012.5 - 0.0 - - - - - - -
22/10:30am 13.0 WNW 12 18 1012.6 - 0.0 - - - - - - -
22/10:00am 12.9 N 4 7 1012.7 - 0.0 - - - - - - -
22/09:30am 10.9 NE 5 9 1012.7 - 0.0 - - - - - - -
22/09:00am 9.4 ENE 8 13 1012.6 - 0.0 - - - - - - -
22/08:30am 9.0 ENE 7 8 1012.7 - 0.0 - - - - - - -
22/08:00am 9.5 N 4 6 1012.8 - 0.0 - - - - - - -
22/07:30am 7.3 NNE 4 7 1013.0 - 0.0 - - - - - - -
22/07:00am 6.5 ENE 5 7 1013.1 - 0.0 - - - - - - -
22/06:30am 7.5 N 2 5 1012.9 - 0.0 - - - - - - -
22/06:00am 7.0 NNW 7 8 1012.7 - 0.0 - - - - - - -
22/05:30am 7.0 NNW 3 6 1012.8 - 0.0 - - - - - - -
22/05:00am 7.0 NNW 2 5 1012.6 - 0.0 - - - - - - -
22/04:30am 6.6 NNW 5 8 1012.4 - 0.0 - - - - - - -
22/04:00am 7.0 N 3 6 1012.7 - 0.0 - - - - - - -
22/03:30am 6.1 NNW 7 12 1012.8 - 0.0 - - - - - - -
22/03:00am 5.7 NW 2 4 1013.1 - 0.0 - - - - - - -
22/02:30am 6.3 CALM 0 0 1013.3 - 0.0 - - - - - - -
22/02:00am 6.7 NE 1 2 1013.4 - 0.0 - - - - - - -
22/01:30am 6.7 N 3 8 1013.5 - 0.0 - - - - - - -
22/01:00am 7.1 N 5 7 1013.7 - 0.0 - - - - - - -
22/12:30am 7.6 NNW 10 12 1013.6 - 0.0 - - - - - - -
22/12:00am 7.9 NNW 9 11 1014.0 - 0.0 - - - - - - -
 
Date/Time
EST
Temp
°C
Wind Pressure Rain since
9am
mm
Weather Cloud Vis
km
Sea
Height
m
Swell
Dir  Spd
kts
Gust
kts
hPa Trend Height
m
Period
s
Dir
21/11:30pm 6.4 NNE 2 6 1014.2 - 0.0 - - - - - - -
21/11:00pm 6.9 NNE 2 2 1014.2 - 0.0 - - - - - - -
21/10:30pm 6.4 NNE 1 2 1014.3 - 0.0 - - - - - - -
21/10:00pm 5.9 NNE 4 5 1014.4 - 0.0 - - - - - - -
21/09:30pm 6.4 NNE 6 8 1014.3 - 0.0 - - - - - - -
21/09:00pm 6.4 NNE 5 6 1014.3 - 0.0 - - - - - - -
21/08:30pm 6.3 NNE 6 7 1014.1 - 0.0 - - - - - - -
21/08:00pm 6.8 NNE 6 7 1014.2 - 0.0 - - - - - - -
21/07:30pm 6.7 N 5 6 1014.1 - 0.0 - - - - - - -
21/07:00pm 6.6 N 4 5 1013.9 - 0.0 - - - - - - -
21/06:30pm 6.8 N 4 5 1013.6 - 0.0 - - - - - - -
21/06:00pm 6.6 N 4 5 1013.5 - 0.0 - - - - - - -
21/05:30pm 7.9 N 2 3 1013.1 - 0.0 - - - - - - -
21/05:00pm 9.0 N 2 3 1013.0 - 0.0 - - - - - - -
21/04:30pm 10.2 N 3 4 1012.9 - 0.0 - - - - - - -
21/04:00pm 10.4 N 3 3 1012.8 - 0.0 - - - - - - -
21/03:30pm 10.6 N 1 2 1012.9 - 0.0 - - - - - - -
21/03:00pm 10.8 N 1 2 1012.9 - 0.0 - - - - - - -
21/02:30pm 10.7 N 3 3 1013.0 - 0.0 - - - - - - -
21/02:00pm 10.6 N 4 4 1013.3 - 0.0 - - - - - - -
21/01:30pm 10.9 NNE 6 7 1013.5 - 0.0 - - - - - - -
21/01:00pm 10.2 NNE 6 7 1013.7 - 0.0 - - - - - - -
21/12:30pm 10.1 NNE 4 5 1014.1 - 0.0 - - - - - - -
21/12:00pm 10.1 NNE 4 5 1014.4 - 0.0 - - - - - - -
21/11:30am 9.5 NNE 4 5 1014.8 - 0.0 - - - - - - -
21/11:00am 9.3 NNE 4 4 1015.1 - 0.0 - - - - - - -
21/10:30am 9.1 NNE 5 6 1015.3 - 0.0 - - - - - - -
21/10:00am 8.5 NNE 3 5 1015.4 - 0.0 - - - - - - -
21/09:30am 8.3 NNE 2 3 1015.7 - 0.0 - - - - - - -
21/09:00am 7.9 CALM 0 1 1015.8 - 0.0 - - - - - - -
21/08:30am 7.0 NNE 2 3 1016.0 - 0.0 - - - - - - -
21/08:00am 6.4 NNE 1 2 1016.1 - 0.0 - - - - - - -
21/07:30am 6.1 NNE 2 2 1016.0 - 0.0 - - - - - - -
21/07:00am 5.9 NNE 2 3 1015.7 - 0.0 - - - - - - -
21/06:30am 6.1 NNE 1 2 1015.5 - 0.0 - - - - - - -
21/06:00am 6.4 CALM 0 0 1015.7 - 0.0 - - - - - - -
21/05:30am 6.2 NNE 2 3 1015.6 - 0.0 - - - - - - -
21/05:00am 6.2 NNE 2 3 1015.6 - 0.0 - - - - - - -
21/04:30am 6.2 NNE 2 3 1015.9 - 0.0 - - - - - - -
21/04:00am 6.2 CALM 0 0 1016.0 - 0.0 - - - - - - -
21/03:30am 6.1 NNE 1 3 1016.1 - 0.0 - - - - - - -
21/03:00am 6.1 CALM 0 0 1016.3 - 0.0 - - - - - - -
21/02:30am 5.9 CALM 0 0 1016.5 - 0.0 - - - - - - -
21/02:00am 5.2 NNE 3 4 1016.6 - 0.0 - - - - - - -
21/01:30am 5.9 NNE 2 3 1016.6 - 0.0 - - - - - - -
21/01:00am 5.9 NNE 2 4 1016.9 - 0.0 - - - - - - -
21/12:30am 5.2 NNE 2 4 1017.0 - 0.0 - - - - - - -
21/12:00am 6.3 CALM 0 0 1017.2 - 0.0 - - - - - - -
 
Date/Time
EST
Temp
°C
Wind Pressure Rain since
9am
mm
Weather Cloud Vis
km
Sea
Height
m
Swell
Dir  Spd
kts
Gust
kts
hPa Trend Height
m
Period
s
Dir
20/11:30pm 6.3 CALM 0 1 1017.5 - 0.0 - - - - - - -
20/11:00pm 6.8 CALM 0 0 1017.8 - 0.0 - - - - - - -
20/10:30pm 7.2 NNE 2 3 1018.2 - 0.0 - - - - - - -
20/10:00pm 6.8 CALM 0 1 1018.4 - 0.0 - - - - - - -
20/09:30pm 6.3 NNE 2 3 1018.3 - 0.0 - - - - - - -
20/09:00pm 6.2 NNE 5 6 1018.1 - 0.0 - - - - - - -
20/08:30pm 6.8 NNE 6 7 1017.9 - 0.0 - - - - - - -
20/08:00pm 7.2 NNE 7 8 1017.7 - 0.0 - - - - - - -
20/07:30pm 7.8 NNE 6 7 1017.8 - 0.0 - - - - - - -
20/07:00pm 8.7 NNE 6 7 1018.0 - 0.0 - - - - - - -
20/06:30pm 8.1 NNE 5 6 1018.0 - 0.0 - - - - - - -
20/06:00pm 8.6 NE 5 6 1017.9 - 0.0 - - - - - - -
20/05:30pm 9.1 NE 6 7 1017.9 - 0.0 - - - - - - -
20/05:00pm 9.6 NE 7 9 1018.0 - 0.0 - - - - - - -
20/04:30pm 10.2 WSW 2 4 1018.0 - 0.0 - - - - - - -
20/04:00pm 10.8 WSW 3 3 1018.0 - 0.0 - - - - - - -
20/03:30pm 11.0 WSW 3 4 1018.1 - 0.0 - - - - - - -
20/03:00pm 11.1 WSW 4 5 1018.3 - 0.0 - - - - - - -
20/02:30pm 11.1 WSW 3 4 1018.4 - 0.0 - - - - - - -

Other Formats:

Comma delimited format used in spreadsheet applications
http://www.bom.gov.au/fwo/IDT60701/IDT60701.94951.axf

JavaScript Object Notation format (JSON) in row-major order
http://www.bom.gov.au/fwo/IDT60701/IDT60701.94951.json